Cooper, Iowa
Current Conditions -  °F | °C
As of 4:55 AM on Friday 24 Oct 2014 (Local Time) from KPRO Reporting Station
Haze Haze  
Wind Chill: 45°   Ceiling: Unl
Heat Index: 48°   Visibility: 2.5mi
Dew Point: 48°   Wind: 7mph
Humidity: 99%   Direction: 170°S
Pressure: 29.99"   Gusts: NA
Location:  41.92°N, 94.35°W
Report Text: KPRO 240955Z AUTO 17006KT 2 1/2SM BR SCT002 09/09 A2999 RMK AO2 T00890087
Loading
Personal Weather Stations






























Interactive Weather Map New forecast layout! Learn more

10-Day Weather Forecast

Advertisements
Track Severe Weather on mobile